sensor_id;sensor_type;location;lat;lon;timestamp;P1;durP1;ratioP1;P2;durP2;ratioP2
7989;SDS011;4040;42.848;23.034;2023-08-07T00:03:27;4.47;;;3.75;;
7989;SDS011;4040;42.848;23.034;2023-08-07T00:13:39;4.30;;;3.90;;
7989;SDS011;4040;42.848;23.034;2023-08-07T00:19:28;5.80;;;4.10;;
7989;SDS011;4040;42.848;23.034;2023-08-07T00:25:17;5.43;;;4.93;;
7989;SDS011;4040;42.848;23.034;2023-08-07T00:31:07;4.63;;;4.20;;
7989;SDS011;4040;42.848;23.034;2023-08-07T00:36:56;6.13;;;5.57;;
7989;SDS011;4040;42.848;23.034;2023-08-07T00:42:45;6.55;;;5.95;;
7989;SDS011;4040;42.848;23.034;2023-08-07T00:48:35;6.22;;;5.60;;
7989;SDS011;4040;42.848;23.034;2023-08-07T00:54:23;6.45;;;5.70;;
7989;SDS011;4040;42.848;23.034;2023-08-07T01:00:13;6.90;;;5.13;;
7989;SDS011;4040;42.848;23.034;2023-08-07T01:06:05;6.60;;;5.45;;
7989;SDS011;4040;42.848;23.034;2023-08-07T01:16:17;6.40;;;5.88;;
7989;SDS011;4040;42.848;23.034;2023-08-07T01:22:16;7.63;;;6.90;;
7989;SDS011;4040;42.848;23.034;2023-08-07T01:28:07;7.45;;;6.78;;
7989;SDS011;4040;42.848;23.034;2023-08-07T01:34:04;8.38;;;7.30;;
7989;SDS011;4040;42.848;23.034;2023-08-07T01:39:56;7.30;;;6.35;;
7989;SDS011;4040;42.848;23.034;2023-08-07T01:45:46;8.05;;;6.82;;
7989;SDS011;4040;42.848;23.034;2023-08-07T01:51:35;7.40;;;6.70;;
7989;SDS011;4040;42.848;23.034;2023-08-07T01:57:25;7.60;;;6.80;;
7989;SDS011;4040;42.848;23.034;2023-08-07T02:03:13;7.47;;;6.78;;
7989;SDS011;4040;42.848;23.034;2023-08-07T02:09:02;9.77;;;7.07;;
7989;SDS011;4040;42.848;23.034;2023-08-07T02:11:29;8.27;;;7.07;;
7989;SDS011;4040;42.848;23.034;2023-08-07T02:17:20;9.03;;;7.97;;
7989;SDS011;4040;42.848;23.034;2023-08-07T02:23:10;8.77;;;7.40;;
7989;SDS011;4040;42.848;23.034;2023-08-07T02:28:58;11.70;;;7.63;;
7989;SDS011;4040;42.848;23.034;2023-08-07T02:34:48;10.00;;;7.07;;
7989;SDS011;4040;42.848;23.034;2023-08-07T02:40:37;8.13;;;7.32;;
7989;SDS011;4040;42.848;23.034;2023-08-07T02:46:26;9.60;;;7.05;;
7989;SDS011;4040;42.848;23.034;2023-08-07T02:52:16;9.57;;;7.65;;
7989;SDS011;4040;42.848;23.034;2023-08-07T02:58:04;8.05;;;6.75;;
7989;SDS011;4040;42.848;23.034;2023-08-07T03:03:53;9.05;;;7.60;;
7989;SDS011;4040;42.848;23.034;2023-08-07T03:09:46;7.63;;;6.85;;
7989;SDS011;4040;42.848;23.034;2023-08-07T03:15:35;9.40;;;7.13;;
7989;SDS011;4040;42.848;23.034;2023-08-07T03:21:24;7.82;;;7.13;;
7989;SDS011;4040;42.848;23.034;2023-08-07T03:27:14;9.80;;;7.67;;
7989;SDS011;4040;42.848;23.034;2023-08-07T03:33:02;9.10;;;8.10;;
7989;SDS011;4040;42.848;23.034;2023-08-07T03:38:51;8.70;;;7.57;;
7989;SDS011;4040;42.848;23.034;2023-08-07T03:44:42;8.88;;;7.32;;
7989;SDS011;4040;42.848;23.034;2023-08-07T03:50:30;8.50;;;7.27;;
7989;SDS011;4040;42.848;23.034;2023-08-07T03:56:21;13.60;;;8.43;;
7989;SDS011;4040;42.848;23.034;2023-08-07T04:02:11;9.97;;;7.50;;
7989;SDS011;4040;42.848;23.034;2023-08-07T04:08:00;9.03;;;7.73;;
7989;SDS011;4040;42.848;23.034;2023-08-07T04:17:32;9.53;;;8.17;;
7989;SDS011;4040;42.848;23.034;2023-08-07T04:23:21;9.97;;;8.33;;
7989;SDS011;4040;42.848;23.034;2023-08-07T04:29:10;15.17;;;8.23;;
7989;SDS011;4040;42.848;23.034;2023-08-07T04:35:00;8.30;;;7.22;;
7989;SDS011;4040;42.848;23.034;2023-08-07T04:40:49;10.27;;;7.28;;
7989;SDS011;4040;42.848;23.034;2023-08-07T04:46:38;8.55;;;7.63;;
7989;SDS011;4040;42.848;23.034;2023-08-07T04:52:29;12.57;;;8.40;;
7989;SDS011;4040;42.848;23.034;2023-08-07T04:58:17;5.68;;;4.63;;
7989;SDS011;4040;42.848;23.034;2023-08-07T05:04:06;3.80;;;3.50;;
7989;SDS011;4040;42.848;23.034;2023-08-07T05:09:56;3.88;;;3.58;;
7989;SDS011;4040;42.848;23.034;2023-08-07T05:19:47;5.85;;;3.20;;
7989;SDS011;4040;42.848;23.034;2023-08-07T05:25:37;6.55;;;3.42;;
7989;SDS011;4040;42.848;23.034;2023-08-07T05:31:26;3.45;;;3.08;;
7989;SDS011;4040;42.848;23.034;2023-08-07T05:37:14;3.90;;;3.50;;
7989;SDS011;4040;42.848;23.034;2023-08-07T05:43:05;3.42;;;3.15;;
7989;SDS011;4040;42.848;23.034;2023-08-07T05:48:53;4.25;;;3.13;;
7989;SDS011;4040;42.848;23.034;2023-08-07T05:54:42;3.53;;;3.22;;
7989;SDS011;4040;42.848;23.034;2023-08-07T06:00:32;2.95;;;2.75;;
7989;SDS011;4040;42.848;23.034;2023-08-07T06:06:21;6.82;;;4.72;;
7989;SDS011;4040;42.848;23.034;2023-08-07T06:12:10;2.83;;;2.60;;
7989;SDS011;4040;42.848;23.034;2023-08-07T06:22:12;3.38;;;2.75;;
7989;SDS011;4040;42.848;23.034;2023-08-07T06:28:01;3.80;;;2.30;;
7989;SDS011;4040;42.848;23.034;2023-08-07T06:33:50;2.90;;;2.30;;
7989;SDS011;4040;42.848;23.034;2023-08-07T06:39:40;3.30;;;2.50;;
7989;SDS011;4040;42.848;23.034;2023-08-07T06:45:29;2.30;;;2.10;;
7989;SDS011;4040;42.848;23.034;2023-08-07T06:51:17;1.80;;;1.70;;
7989;SDS011;4040;42.848;23.034;2023-08-07T06:57:08;2.63;;;1.92;;
7989;SDS011;4040;42.848;23.034;2023-08-07T07:02:56;3.00;;;2.58;;
7989;SDS011;4040;42.848;23.034;2023-08-07T07:08:45;2.35;;;2.00;;
7989;SDS011;4040;42.848;23.034;2023-08-07T07:14:35;3.63;;;2.10;;
7989;SDS011;4040;42.848;23.034;2023-08-07T07:24:45;3.40;;;1.83;;
7989;SDS011;4040;42.848;23.034;2023-08-07T07:30:36;4.65;;;1.60;;
7989;SDS011;4040;42.848;23.034;2023-08-07T07:36:27;5.03;;;3.15;;
7989;SDS011;4040;42.848;23.034;2023-08-07T07:42:17;4.40;;;2.97;;
7989;SDS011;4040;42.848;23.034;2023-08-07T07:48:06;4.28;;;1.20;;
7989;SDS011;4040;42.848;23.034;2023-08-07T07:53:56;1.15;;;1.05;;
7989;SDS011;4040;42.848;23.034;2023-08-07T07:59:44;2.83;;;1.30;;
7989;SDS011;4040;42.848;23.034;2023-08-07T08:05:34;2.00;;;1.10;;
7989;SDS011;4040;42.848;23.034;2023-08-07T08:11:23;2.00;;;1.40;;
7989;SDS011;4040;42.848;23.034;2023-08-07T08:17:12;1.42;;;1.15;;
7989;SDS011;4040;42.848;23.034;2023-08-07T08:27:24;1.77;;;1.30;;
7989;SDS011;4040;42.848;23.034;2023-08-07T08:33:13;1.80;;;1.40;;
7989;SDS011;4040;42.848;23.034;2023-08-07T08:39:02;1.63;;;1.52;;
7989;SDS011;4040;42.848;23.034;2023-08-07T08:44:53;1.10;;;1.00;;
7989;SDS011;4040;42.848;23.034;2023-08-07T08:50:43;1.80;;;1.30;;
7989;SDS011;4040;42.848;23.034;2023-08-07T08:56:32;1.38;;;1.27;;
7989;SDS011;4040;42.848;23.034;2023-08-07T09:02:22;1.38;;;1.17;;
7989;SDS011;4040;42.848;23.034;2023-08-07T09:08:11;2.15;;;1.30;;
7989;SDS011;4040;42.848;23.034;2023-08-07T09:14:00;4.78;;;1.50;;
7989;SDS011;4040;42.848;23.034;2023-08-07T09:19:52;1.23;;;1.08;;
7989;SDS011;4040;42.848;23.034;2023-08-07T09:30:02;1.20;;;1.10;;
7989;SDS011;4040;42.848;23.034;2023-08-07T09:35:58;2.53;;;1.20;;
7989;SDS011;4040;42.848;23.034;2023-08-07T09:41:50;3.47;;;1.20;;
7989;SDS011;4040;42.848;23.034;2023-08-07T09:47:39;1.45;;;1.30;;
7989;SDS011;4040;42.848;23.034;2023-08-07T09:53:30;1.48;;;1.38;;
7989;SDS011;4040;42.848;23.034;2023-08-07T09:59:18;1.85;;;1.20;;
7989;SDS011;4040;42.848;23.034;2023-08-07T10:05:07;3.08;;;1.23;;
7989;SDS011;4040;42.848;23.034;2023-08-07T10:10:59;1.67;;;1.35;;
7989;SDS011;4040;42.848;23.034;2023-08-07T10:16:48;1.55;;;1.45;;
7989;SDS011;4040;42.848;23.034;2023-08-07T10:22:38;5.60;;;1.70;;
7989;SDS011;4040;42.848;23.034;2023-08-07T10:32:51;1.48;;;1.38;;
7989;SDS011;4040;42.848;23.034;2023-08-07T10:38:40;1.70;;;1.60;;
7989;SDS011;4040;42.848;23.034;2023-08-07T10:44:30;2.10;;;1.52;;
7989;SDS011;4040;42.848;23.034;2023-08-07T10:50:31;2.47;;;1.38;;
7989;SDS011;4040;42.848;23.034;2023-08-07T10:56:29;8.35;;;1.92;;
7989;SDS011;4040;42.848;23.034;2023-08-07T11:02:23;3.03;;;1.50;;
7989;SDS011;4040;42.848;23.034;2023-08-07T11:08:15;3.53;;;1.52;;
7989;SDS011;4040;42.848;23.034;2023-08-07T11:14:03;3.00;;;1.60;;
7989;SDS011;4040;42.848;23.034;2023-08-07T11:19:52;4.13;;;1.75;;
7989;SDS011;4040;42.848;23.034;2023-08-07T11:25:43;2.47;;;1.63;;
7989;SDS011;4040;42.848;23.034;2023-08-07T11:35:54;5.65;;;1.75;;
7989;SDS011;4040;42.848;23.034;2023-08-07T11:41:44;6.53;;;1.95;;
7989;SDS011;4040;42.848;23.034;2023-08-07T11:47:33;1.80;;;1.40;;
7989;SDS011;4040;42.848;23.034;2023-08-07T11:53:23;2.00;;;1.60;;
7989;SDS011;4040;42.848;23.034;2023-08-07T11:59:14;4.95;;;1.95;;
7989;SDS011;4040;42.848;23.034;2023-08-07T12:05:04;3.15;;;1.70;;
7989;SDS011;4040;42.848;23.034;2023-08-07T12:10:57;2.15;;;1.70;;
7989;SDS011;4040;42.848;23.034;2023-08-07T12:16:48;2.75;;;1.80;;
7989;SDS011;4040;42.848;23.034;2023-08-07T12:22:37;5.00;;;2.00;;
7989;SDS011;4040;42.848;23.034;2023-08-07T12:28:26;4.65;;;2.13;;
7989;SDS011;4040;42.848;23.034;2023-08-07T12:38:38;9.95;;;1.90;;
7989;SDS011;4040;42.848;23.034;2023-08-07T12:44:26;15.63;;;2.42;;
7989;SDS011;4040;42.848;23.034;2023-08-07T12:50:15;4.80;;;2.00;;
7989;SDS011;4040;42.848;23.034;2023-08-07T12:56:05;4.40;;;1.98;;
7989;SDS011;4040;42.848;23.034;2023-08-07T13:01:54;1.85;;;1.75;;
7989;SDS011;4040;42.848;23.034;2023-08-07T13:07:43;2.75;;;1.98;;
7989;SDS011;4040;42.848;23.034;2023-08-07T13:13:33;3.92;;;2.42;;
7989;SDS011;4040;42.848;23.034;2023-08-07T13:19:22;4.55;;;1.98;;
7989;SDS011;4040;42.848;23.034;2023-08-07T13:25:11;2.58;;;2.10;;
7989;SDS011;4040;42.848;23.034;2023-08-07T13:31:02;2.40;;;1.83;;
7989;SDS011;4040;42.848;23.034;2023-08-07T13:41:13;2.25;;;1.67;;
7989;SDS011;4040;42.848;23.034;2023-08-07T13:47:04;7.38;;;3.80;;
7989;SDS011;4040;42.848;23.034;2023-08-07T13:52:53;3.60;;;1.90;;
7989;SDS011;4040;42.848;23.034;2023-08-07T13:58:42;4.25;;;1.67;;
7989;SDS011;4040;42.848;23.034;2023-08-07T14:04:32;2.90;;;1.60;;
7989;SDS011;4040;42.848;23.034;2023-08-07T14:10:21;3.05;;;1.80;;
7989;SDS011;4040;42.848;23.034;2023-08-07T14:16:09;5.15;;;1.90;;
7989;SDS011;4040;42.848;23.034;2023-08-07T14:22:00;12.45;;;2.90;;
7989;SDS011;4040;42.848;23.034;2023-08-07T14:27:48;9.65;;;2.17;;
7989;SDS011;4040;42.848;23.034;2023-08-07T14:33:37;6.45;;;1.85;;
7989;SDS011;4040;42.848;23.034;2023-08-07T14:43:49;5.05;;;2.58;;
7989;SDS011;4040;42.848;23.034;2023-08-07T14:49:37;2.65;;;2.20;;
7989;SDS011;4040;42.848;23.034;2023-08-07T14:55:26;2.10;;;1.88;;
7989;SDS011;4040;42.848;23.034;2023-08-07T15:01:16;3.13;;;2.17;;
7989;SDS011;4040;42.848;23.034;2023-08-07T15:07:05;5.03;;;2.47;;
7989;SDS011;4040;42.848;23.034;2023-08-07T15:12:53;4.38;;;2.58;;
7989;SDS011;4040;42.848;23.034;2023-08-07T15:18:44;3.28;;;2.75;;
7989;SDS011;4040;42.848;23.034;2023-08-07T15:24:32;4.05;;;2.40;;
7989;SDS011;4040;42.848;23.034;2023-08-07T15:30:21;5.10;;;2.60;;
7989;SDS011;4040;42.848;23.034;2023-08-07T15:36:11;3.08;;;2.40;;
7989;SDS011;4040;42.848;23.034;2023-08-07T15:46:22;4.28;;;2.13;;
7989;SDS011;4040;42.848;23.034;2023-08-07T15:52:12;3.13;;;1.73;;
7989;SDS011;4040;42.848;23.034;2023-08-07T15:58:00;6.35;;;1.67;;
7989;SDS011;4040;42.848;23.034;2023-08-07T16:03:49;2.20;;;1.90;;
7989;SDS011;4040;42.848;23.034;2023-08-07T16:09:39;11.43;;;4.90;;
7989;SDS011;4040;42.848;23.034;2023-08-07T16:15:28;6.57;;;3.00;;
7989;SDS011;4040;42.848;23.034;2023-08-07T16:21:17;5.40;;;2.83;;
7989;SDS011;4040;42.848;23.034;2023-08-07T16:27:07;2.20;;;1.85;;
7989;SDS011;4040;42.848;23.034;2023-08-07T16:32:56;3.15;;;2.20;;
7989;SDS011;4040;42.848;23.034;2023-08-07T16:38:45;4.15;;;1.98;;
7989;SDS011;4040;42.848;23.034;2023-08-07T16:48:58;5.03;;;2.40;;
7989;SDS011;4040;42.848;23.034;2023-08-07T16:54:47;4.80;;;2.92;;
7989;SDS011;4040;42.848;23.034;2023-08-07T17:00:39;6.82;;;3.28;;
7989;SDS011;4040;42.848;23.034;2023-08-07T17:06:30;8.50;;;4.10;;
7989;SDS011;4040;42.848;23.034;2023-08-07T17:12:18;6.50;;;2.78;;
7989;SDS011;4040;42.848;23.034;2023-08-07T17:18:07;3.60;;;3.30;;
7989;SDS011;4040;42.848;23.034;2023-08-07T17:23:57;4.18;;;2.83;;
7989;SDS011;4040;42.848;23.034;2023-08-07T17:29:46;5.18;;;3.30;;
7989;SDS011;4040;42.848;23.034;2023-08-07T17:35:35;5.70;;;3.30;;
7989;SDS011;4040;42.848;23.034;2023-08-07T17:41:25;6.15;;;3.80;;
7989;SDS011;4040;42.848;23.034;2023-08-07T17:51:36;6.53;;;3.83;;
7989;SDS011;4040;42.848;23.034;2023-08-07T17:57:26;6.75;;;4.40;;
7989;SDS011;4040;42.848;23.034;2023-08-07T18:03:16;7.95;;;4.13;;
7989;SDS011;4040;42.848;23.034;2023-08-07T18:09:04;5.30;;;4.03;;
7989;SDS011;4040;42.848;23.034;2023-08-07T18:14:55;5.07;;;4.32;;
7989;SDS011;4040;42.848;23.034;2023-08-07T18:20:44;5.25;;;3.70;;
7989;SDS011;4040;42.848;23.034;2023-08-07T18:26:33;4.28;;;3.88;;
7989;SDS011;4040;42.848;23.034;2023-08-07T18:32:23;5.75;;;4.72;;
7989;SDS011;4040;42.848;23.034;2023-08-07T18:38:12;8.27;;;5.20;;
7989;SDS011;4040;42.848;23.034;2023-08-07T18:44:00;5.13;;;4.63;;
7989;SDS011;4040;42.848;23.034;2023-08-07T18:54:13;8.38;;;4.35;;
7989;SDS011;4040;42.848;23.034;2023-08-07T19:00:03;7.80;;;4.45;;
7989;SDS011;4040;42.848;23.034;2023-08-07T19:05:55;4.47;;;4.07;;
7989;SDS011;4040;42.848;23.034;2023-08-07T19:11:46;6.00;;;4.78;;
7989;SDS011;4040;42.848;23.034;2023-08-07T19:17:34;5.20;;;4.68;;
7989;SDS011;4040;42.848;23.034;2023-08-07T19:23:23;6.55;;;4.55;;
7989;SDS011;4040;42.848;23.034;2023-08-07T19:29:14;8.10;;;4.68;;
7989;SDS011;4040;42.848;23.034;2023-08-07T19:35:03;6.15;;;4.05;;
7989;SDS011;4040;42.848;23.034;2023-08-07T19:40:52;5.78;;;3.97;;
7989;SDS011;4040;42.848;23.034;2023-08-07T19:46:42;4.75;;;3.55;;
7989;SDS011;4040;42.848;23.034;2023-08-07T19:56:53;6.90;;;4.20;;
7989;SDS011;4040;42.848;23.034;2023-08-07T20:02:43;6.35;;;3.85;;
7989;SDS011;4040;42.848;23.034;2023-08-07T20:08:32;7.22;;;3.97;;
7989;SDS011;4040;42.848;23.034;2023-08-07T20:14:21;6.38;;;3.50;;
7989;SDS011;4040;42.848;23.034;2023-08-07T20:20:11;6.57;;;3.70;;
7989;SDS011;4040;42.848;23.034;2023-08-07T20:26:00;4.75;;;4.05;;
7989;SDS011;4040;42.848;23.034;2023-08-07T20:31:49;4.78;;;3.75;;
7989;SDS011;4040;42.848;23.034;2023-08-07T20:37:40;4.18;;;3.78;;
7989;SDS011;4040;42.848;23.034;2023-08-07T20:43:28;4.18;;;3.78;;
7989;SDS011;4040;42.848;23.034;2023-08-07T20:49:17;4.15;;;3.05;;
7989;SDS011;4040;42.848;23.034;2023-08-07T20:59:29;2.10;;;1.90;;
7989;SDS011;4040;42.848;23.034;2023-08-07T21:05:18;3.47;;;1.60;;
7989;SDS011;4040;42.848;23.034;2023-08-07T21:11:06;2.08;;;1.60;;
7989;SDS011;4040;42.848;23.034;2023-08-07T21:16:57;4.32;;;1.73;;
7989;SDS011;4040;42.848;23.034;2023-08-07T21:22:45;2.75;;;1.52;;
7989;SDS011;4040;42.848;23.034;2023-08-07T21:28:34;1.70;;;1.40;;
7989;SDS011;4040;42.848;23.034;2023-08-07T21:34:24;1.70;;;1.60;;
7989;SDS011;4040;42.848;23.034;2023-08-07T21:40:13;2.03;;;1.83;;
7989;SDS011;4040;42.848;23.034;2023-08-07T21:46:02;1.70;;;1.60;;
7989;SDS011;4040;42.848;23.034;2023-08-07T21:51:52;2.08;;;1.60;;
7989;SDS011;4040;42.848;23.034;2023-08-07T22:08:32;3.63;;;2.00;;
7989;SDS011;4040;42.848;23.034;2023-08-07T22:14:20;4.10;;;2.05;;
7989;SDS011;4040;42.848;23.034;2023-08-07T22:20:09;2.95;;;1.88;;
7989;SDS011;4040;42.848;23.034;2023-08-07T22:26:00;2.13;;;1.80;;
7989;SDS011;4040;42.848;23.034;2023-08-07T22:31:49;1.95;;;1.77;;
7989;SDS011;4040;42.848;23.034;2023-08-07T22:37:37;2.30;;;2.00;;
7989;SDS011;4040;42.848;23.034;2023-08-07T22:43:28;3.35;;;1.73;;
7989;SDS011;4040;42.848;23.034;2023-08-07T22:49:16;2.60;;;1.67;;
7989;SDS011;4040;42.848;23.034;2023-08-07T22:55:07;1.85;;;1.73;;
7989;SDS011;4040;42.848;23.034;2023-08-07T23:00:57;1.77;;;1.67;;
7989;SDS011;4040;42.848;23.034;2023-08-07T23:03:26;2.78;;;1.88;;
7989;SDS011;4040;42.848;23.034;2023-08-07T23:09:14;2.63;;;1.80;;
7989;SDS011;4040;42.848;23.034;2023-08-07T23:15:04;2.88;;;2.03;;
7989;SDS011;4040;42.848;23.034;2023-08-07T23:20:54;3.28;;;1.77;;
7989;SDS011;4040;42.848;23.034;2023-08-07T23:26:43;5.13;;;1.98;;
7989;SDS011;4040;42.848;23.034;2023-08-07T23:32:32;2.40;;;2.10;;
7989;SDS011;4040;42.848;23.034;2023-08-07T23:38:22;2.28;;;2.08;;
7989;SDS011;4040;42.848;23.034;2023-08-07T23:44:10;2.20;;;2.00;;
7989;SDS011;4040;42.848;23.034;2023-08-07T23:49:59;2.03;;;1.80;;
7989;SDS011;4040;42.848;23.034;2023-08-07T23:55:49;3.58;;;1.90;;
